Time;durP1;ratioP1;P1;durP2;ratioP2;P2;SDS_P1;SDS_P2;PMS_P1;PMS_P2;Temp;Humidity;BMP_temperature;BMP_pressure;BME280_temperature;BME280_humidity;BME280_pressure;Samples;Min_cycle;Max_cycle;Signal;HPM_P1;HPM_P2
2022/09/21 00:00:35;;;;;;;1.38;0.75;;;;;;;16.78;40.47;98845.38;4994681;28;20490;-70
2022/09/21 00:03:01;;;;;;;0.93;0.70;;;;;;;16.78;40.66;98850.66;4978355;28;20042;-70
2022/09/21 00:05:26;;;;;;;0.98;0.70;;;;;;;16.73;40.73;98842.38;5023317;28;20503;-70
2022/09/21 00:07:52;;;;;;;0.70;0.60;;;;;;;16.71;40.93;98843.50;4997491;28;20455;-70
2022/09/21 00:10:19;;;;;;;1.65;0.50;;;;;;;16.68;40.99;98841.16;5013870;28;20463;-71
2022/09/21 00:12:47;;;;;;;1.73;0.70;;;;;;;16.66;40.98;98843.16;4997995;28;20025;-72
2022/09/21 00:15:13;;;;;;;1.67;0.93;;;;;;;16.59;41.25;98833.22;4982675;28;20473;-72
2022/09/21 00:17:38;;;;;;;1.90;1.10;;;;;;;16.60;41.02;98840.16;4981028;28;20034;-70
2022/09/21 00:20:05;;;;;;;1.95;0.70;;;;;;;16.56;40.96;98835.34;5014158;28;20072;-73
2022/09/21 00:22:31;;;;;;;1.00;0.80;;;;;;;16.53;40.97;98841.72;4981713;28;20030;-74
2022/09/21 00:24:57;;;;;;;0.80;0.70;;;;;;;16.47;41.15;98834.44;4981753;28;20123;-74
2022/09/21 00:27:28;;;;;;;1.73;0.80;;;;;;;16.48;40.94;98848.41;4981653;28;20052;-73
2022/09/21 00:29:55;;;;;;;1.30;0.70;;;;;;;16.43;41.22;98847.09;4999639;28;20516;-71
2022/09/21 00:32:20;;;;;;;1.20;0.80;;;;;;;16.36;41.22;98837.31;4981425;28;20026;-71
2022/09/21 00:34:46;;;;;;;1.10;0.60;;;;;;;16.37;41.41;98833.69;4997069;28;20042;-73
2022/09/21 00:37:11;;;;;;;1.05;0.70;;;;;;;16.38;41.45;98827.44;4981247;28;20040;-72
2022/09/21 00:39:37;;;;;;;1.23;0.80;;;;;;;16.34;41.50;98823.47;5014351;28;20394;-74
2022/09/21 00:42:20;;;;;;;1.73;0.80;;;;;;;16.29;41.89;98821.28;5014153;28;20053;-74
2022/09/21 00:44:46;;;;;;;1.13;0.80;;;;;;;16.26;41.41;98816.31;4983218;28;20143;-73
2022/09/21 00:47:36;;;;;;;0.95;0.70;;;;;;;16.22;41.46;98820.22;5014054;28;20025;-74
2022/09/21 00:50:05;;;;;;;1.40;0.80;;;;;;;16.15;41.68;98819.19;4919646;29;20101;-72
2022/09/21 00:52:32;;;;;;;1.67;0.80;;;;;;;16.12;41.61;98808.94;4920063;29;20043;-72
2022/09/21 00:55:02;;;;;;;2.83;0.85;;;;;;;16.12;41.79;98816.84;4919728;29;20043;-74
2022/09/21 00:57:29;;;;;;;1.48;0.82;;;;;;;16.03;42.00;98798.31;4919526;28;20035;-75
2022/09/21 00:59:56;;;;;;;0.80;0.70;;;;;;;16.01;42.07;98810.81;4923514;29;20143;-74
2022/09/21 01:02:21;;;;;;;0.95;0.70;;;;;;;16.02;42.13;98809.84;4922765;29;20274;-74
2022/09/21 01:04:47;;;;;;;1.52;0.90;;;;;;;16.02;42.21;98807.22;4938752;29;20035;-74
2022/09/21 01:07:17;;;;;;;1.90;0.98;;;;;;;16.02;42.13;98819.53;4906932;29;20039;-73
2022/09/21 01:09:43;;;;;;;0.85;0.63;;;;;;;15.99;42.02;98818.03;4907526;29;20035;-73
2022/09/21 01:12:15;;;;;;;0.98;0.70;;;;;;;15.94;41.87;98817.69;4906473;29;20031;-73
2022/09/21 01:14:43;;;;;;;2.38;0.80;;;;;;;15.90;41.93;98824.19;4954468;29;20122;-72
2022/09/21 01:17:16;;;;;;;1.02;0.70;;;;;;;15.83;41.79;98825.75;4954427;29;20035;-72
2022/09/21 01:20:03;;;;;;;1.65;0.85;;;;;;;15.81;41.99;98822.47;4923121;29;20049;-73
2022/09/21 01:23:03;;;;;;;1.33;0.80;;;;;;;15.78;42.31;98823.59;4954510;29;20050;-72
2022/09/21 01:25:40;;;;;;;1.00;0.75;;;;;;;15.76;42.10;98822.88;4878590;29;20049;-72
2022/09/21 01:28:24;;;;;;;1.08;0.70;;;;;;;15.74;42.21;98814.31;4917159;29;20055;-72
2022/09/21 01:30:50;;;;;;;1.33;0.90;;;;;;;15.71;42.20;98818.03;4918799;29;20056;-72
2022/09/21 01:33:22;;;;;;;1.02;0.77;;;;;;;15.70;42.25;98833.97;4903521;29;20027;-72
2022/09/21 01:36:00;;;;;;;1.52;0.88;;;;;;;15.68;42.67;98825.41;4903832;29;20554;-72
2022/09/21 01:38:31;;;;;;;1.60;0.90;;;;;;;15.67;42.62;98823.75;4903567;29;20074;-73
2022/09/21 01:41:01;;;;;;;1.70;0.90;;;;;;;15.65;42.69;98818.63;4903439;29;20043;-72
2022/09/21 01:43:31;;;;;;;1.20;0.80;;;;;;;15.64;42.93;98819.63;4903619;29;20405;-73
2022/09/21 01:45:56;;;;;;;1.02;0.80;;;;;;;15.65;42.99;98818.63;4902907;29;20118;-72
2022/09/21 01:48:23;;;;;;;1.33;0.90;;;;;;;15.64;42.84;98819.63;4919101;29;20496;-72
2022/09/21 01:50:54;;;;;;;1.50;0.90;;;;;;;15.62;43.09;98816.28;4918790;29;20036;-72
2022/09/21 01:53:27;;;;;;;1.85;0.80;;;;;;;15.60;43.16;98818.25;4903861;29;20031;-72
2022/09/21 01:55:57;;;;;;;1.20;0.90;;;;;;;15.64;43.14;98819.63;4903640;29;20048;-72
2022/09/21 01:58:44;;;;;;;2.63;0.80;;;;;;;15.60;43.31;98806.91;4903068;29;20035;-74
2022/09/21 02:01:11;;;;;;;1.45;0.80;;;;;;;15.62;43.23;98816.28;4908874;28;20032;-73
2022/09/21 02:03:56;;;;;;;2.45;1.00;;;;;;;15.63;42.95;98815.34;4983777;28;20087;-73
2022/09/21 02:06:23;;;;;;;2.95;0.75;;;;;;;15.66;42.80;98814.22;4985058;28;20037;-73
2022/09/21 02:08:49;;;;;;;2.63;0.90;;;;;;;15.69;42.79;98816.56;4983810;28;20033;-73
2022/09/21 02:11:14;;;;;;;1.33;0.82;;;;;;;15.66;42.74;98808.97;5014794;28;20183;-73
2022/09/21 02:13:43;;;;;;;1.10;0.75;;;;;;;15.70;43.05;98824.31;4999594;28;20026;-73
2022/09/21 02:16:20;;;;;;;1.23;0.90;;;;;;;15.65;43.37;98808.09;5000296;28;20039;-73
2022/09/21 02:19:08;;;;;;;1.15;0.80;;;;;;;15.71;43.10;98817.22;5016163;28;20083;-73
2022/09/21 02:21:56;;;;;;;1.58;0.80;;;;;;;15.74;43.13;98823.00;5033821;28;20034;-73
2022/09/21 02:24:42;;;;;;;2.42;0.80;;;;;;;15.76;43.10;98827.31;5033500;28;20112;-73
2022/09/21 02:27:23;;;;;;;0.90;0.70;;;;;;;15.76;43.36;98830.75;4999423;28;20029;-74
2022/09/21 02:30:00;;;;;;;1.00;0.80;;;;;;;15.79;43.42;98832.31;5032896;28;20057;-73
2022/09/21 02:33:03;;;;;;;2.80;0.80;;;;;;;15.81;43.67;98825.09;5033698;28;20018;-73
2022/09/21 02:35:35;;;;;;;1.98;0.80;;;;;;;15.84;43.75;98824.78;5033119;28;20108;-72
2022/09/21 02:38:18;;;;;;;4.40;0.90;;;;;;;15.80;43.87;98812.94;5033031;28;20049;-73
2022/09/21 02:41:18;;;;;;;2.28;0.90;;;;;;;15.85;43.95;98813.31;5015554;28;20037;-73
2022/09/21 02:44:04;;;;;;;2.33;0.95;;;;;;;15.87;44.04;98820.06;4999194;28;20412;-72
2022/09/21 02:46:52;;;;;;;1.00;0.70;;;;;;;15.84;44.29;98815.09;5015586;28;20124;-73
2022/09/21 02:49:30;;;;;;;2.60;0.82;;;;;;;15.83;44.60;98808.19;5033067;28;20033;-72
2022/09/21 02:52:01;;;;;;;0.88;0.70;;;;;;;15.88;44.54;98805.94;4982552;28;20033;-73
2022/09/21 02:54:28;;;;;;;3.13;0.82;;;;;;;15.90;44.45;98814.50;4982996;28;20381;-73
2022/09/21 02:56:54;;;;;;;0.73;0.70;;;;;;;15.90;44.43;98811.84;4998976;28;20029;-73
2022/09/21 02:59:22;;;;;;;1.52;1.10;;;;;;;15.85;44.44;98795.69;4999244;28;20034;-73
2022/09/21 03:01:48;;;;;;;2.53;0.90;;;;;;;15.92;44.43;98809.06;4999911;28;20028;-74
2022/09/21 03:04:13;;;;;;;1.27;0.80;;;;;;;15.91;44.17;98805.63;4982358;28;20038;-74
2022/09/21 03:06:40;;;;;;;1.38;0.80;;;;;;;15.91;44.31;98797.72;4998881;28;20033;-73
2022/09/21 03:09:05;;;;;;;1.35;0.80;;;;;;;15.88;44.47;98805.94;5015160;28;20040;-74
2022/09/21 03:11:31;;;;;;;1.70;0.80;;;;;;;15.93;44.42;98810.75;4998531;28;20397;-74
2022/09/21 03:13:58;;;;;;;1.20;0.90;;;;;;;15.90;44.54;98808.41;5015471;28;20041;-74
2022/09/21 03:16:24;;;;;;;2.17;0.70;;;;;;;15.94;44.57;98811.56;4998888;28;20503;-74
2022/09/21 03:18:49;;;;;;;2.97;0.90;;;;;;;15.94;44.67;98815.03;5014373;28;20489;-74
2022/09/21 03:21:15;;;;;;;2.97;0.90;;;;;;;15.95;44.82;98816.69;4997489;28;20071;-72
2022/09/21 03:23:40;;;;;;;3.25;0.90;;;;;;;15.94;44.71;98812.41;4982097;28;20420;-72
2022/09/21 03:26:07;;;;;;;1.40;0.80;;;;;;;15.95;44.82;98814.03;4998236;28;20485;-72
2022/09/21 03:28:33;;;;;;;0.95;0.80;;;;;;;15.93;44.93;98802.84;4998599;28;20485;-74
2022/09/21 03:30:58;;;;;;;2.05;0.80;;;;;;;15.92;44.98;98811.72;4998028;28;20046;-75
2022/09/21 03:33:24;;;;;;;1.67;0.90;;;;;;;15.97;45.02;98819.16;4981329;28;20550;-73
2022/09/21 03:35:50;;;;;;;1.80;0.90;;;;;;;15.89;45.27;98802.31;5014236;28;20045;-72
2022/09/21 03:38:16;;;;;;;4.45;0.98;;;;;;;15.96;45.45;98820.16;4981855;28;20512;-74
2022/09/21 03:40:45;;;;;;;1.85;1.10;;;;;;;15.97;45.46;98819.16;5013637;28;20045;-73
2022/09/21 03:43:11;;;;;;;2.17;1.00;;;;;;;15.93;45.56;98812.56;4998262;28;20476;-73
2022/09/21 03:45:39;;;;;;;1.90;0.95;;;;;;;15.96;45.47;98820.97;4997879;28;20048;-73
2022/09/21 03:48:04;;;;;;;2.08;1.00;;;;;;;15.96;45.51;98823.59;4977324;28;20072;-74
2022/09/21 03:50:30;;;;;;;1.60;0.95;;;;;;;15.99;45.38;98825.13;5004427;28;20038;-72
2022/09/21 03:52:56;;;;;;;1.38;1.00;;;;;;;15.97;45.24;98820.00;4986565;28;20645;-73
2022/09/21 03:55:21;;;;;;;2.65;1.00;;;;;;;15.96;45.15;98826.25;4986869;28;20080;-73
2022/09/21 03:57:47;;;;;;;2.38;0.75;;;;;;;15.99;44.99;98828.56;4988074;28;20467;-73
2022/09/21 04:00:13;;;;;;;1.10;0.85;;;;;;;16.01;44.86;98836.31;4996721;28;20030;-74
2022/09/21 04:02:41;;;;;;;1.63;0.90;;;;;;;15.98;45.05;98826.09;4961700;28;20038;-74
2022/09/21 04:05:08;;;;;;;4.72;0.85;;;;;;;16.05;45.04;98838.50;4962263;28;20046;-74
2022/09/21 04:07:34;;;;;;;3.22;0.85;;;;;;;16.24;44.43;98834.06;4962120;28;20557;-74
2022/09/21 04:10:00;;;;;;;1.20;0.93;;;;;;;16.44;43.93;98832.09;4977650;28;20037;-74
2022/09/21 04:12:26;;;;;;;2.78;0.95;;;;;;;16.43;44.06;98840.97;4978173;28;20024;-75
2022/09/21 04:14:51;;;;;;;1.48;0.98;;;;;;;16.43;43.79;98840.97;4978829;28;20121;-74
2022/09/21 04:17:17;;;;;;;1.60;0.82;;;;;;;16.49;43.54;98839.53;4994477;28;20049;-73
2022/09/21 04:19:44;;;;;;;1.75;0.90;;;;;;;16.44;43.54;98845.28;4978252;28;20066;-70
2022/09/21 04:22:11;;;;;;;1.45;0.90;;;;;;;16.55;45.04;98841.56;5000191;28;20026;-69
2022/09/21 04:24:39;;;;;;;1.70;0.75;;;;;;;16.78;45.35;98848.00;4997672;28;20467;-70
2022/09/21 04:27:05;;;;;;;;;;;;;;;16.82;43.84;98841.47;4996839;28;20509;-71
2022/09/21 04:29:31;;;;;;;1.27;0.80;;;;;;;16.79;43.33;98840.91;4996630;28;19928;-70
2022/09/21 04:31:57;;;;;;;3.22;0.85;;;;;;;16.79;43.15;98836.50;5013398;28;20018;-70
2022/09/21 04:34:22;;;;;;;1.80;0.80;;;;;;;16.84;42.82;98838.66;5033559;28;20500;-71
2022/09/21 04:36:47;;;;;;;1.30;1.00;;;;;;;16.89;42.86;98839.06;5016951;28;20029;-71
2022/09/21 04:39:13;;;;;;;3.92;0.77;;;;;;;16.95;42.84;98840.22;5017391;28;20481;-73
2022/09/21 04:41:38;;;;;;;2.00;0.80;;;;;;;16.99;42.44;98834.50;5016731;28;20033;-74
2022/09/21 04:44:04;;;;;;;2.80;1.10;;;;;;;17.06;42.26;98839.97;4984516;28;20432;-73
2022/09/21 04:46:29;;;;;;;5.13;1.40;;;;;;;17.17;42.54;98834.44;4983949;28;20029;-72
2022/09/21 04:48:55;;;;;;;7.57;2.03;;;;;;;17.53;41.48;98836.06;4984306;28;20073;-72
2022/09/21 04:51:21;;;;;;;6.63;2.22;;;;;;;17.82;40.69;98843.59;5000229;28;20026;-71
2022/09/21 04:53:46;;;;;;;3.95;2.40;;;;;;;18.68;38.99;98832.81;5000008;28;20045;-70
2022/09/21 04:56:13;;;;;;;2.97;2.08;;;;;;;19.22;37.71;98837.53;5017004;28;20059;-71
2022/09/21 04:58:38;;;;;;;3.78;2.50;;;;;;;19.98;36.43;98836.03;5000302;28;20049;-74
2022/09/21 05:01:05;;;;;;;7.07;2.65;;;;;;;21.17;34.42;98843.50;5000382;28;20033;-69
2022/09/21 05:03:30;;;;;;;4.40;2.90;;;;;;;21.92;33.00;98843.44;5016141;28;20025;-71
2022/09/21 05:05:56;;;;;;;5.07;2.95;;;;;;;21.91;33.15;98841.81;4998824;28;20040;-73
2022/09/21 05:11:11;;;;;;;6.47;2.90;;;;;;;21.79;32.30;98836.97;5017885;28;20087;-72
2022/09/21 05:13:36;;;;;;;8.73;2.95;;;;;;;21.82;32.08;98836.59;4999746;28;20025;-72
2022/09/21 05:16:02;;;;;;;5.22;2.92;;;;;;;22.11;31.84;98842.03;5015454;28;20033;-72
2022/09/21 05:18:28;;;;;;;10.85;2.78;;;;;;;22.70;30.98;98833.75;4998500;28;20464;-71
2022/09/21 05:20:57;;;;;;;9.35;2.85;;;;;;;22.69;30.94;98832.13;5016584;28;20025;-71
2022/09/21 05:23:23;;;;;;;8.32;2.45;;;;;;;22.90;30.52;98839.25;4983558;28;20025;-70
2022/09/21 05:25:49;;;;;;;10.85;2.05;;;;;;;23.52;29.47;98828.75;4999673;28;20034;-72
2022/09/21 05:28:16;;;;;;;5.80;1.80;;;;;;;23.33;30.00;98824.97;4983420;28;20038;-72
2022/09/21 05:30:45;;;;;;;4.22;1.67;;;;;;;23.10;30.16;98834.09;4983474;28;20056;-71
2022/09/21 05:33:13;;;;;;;5.18;1.50;;;;;;;22.93;30.03;98825.53;4983407;28;20045;-75
2022/09/21 05:35:41;;;;;;;2.78;1.33;;;;;;;23.05;29.87;98830.31;4999536;28;20057;-71
2022/09/21 05:38:18;;;;;;;6.43;1.48;;;;;;;23.95;28.55;98830.34;4999535;28;20504;-73
2022/09/21 05:40:44;;;;;;;4.95;1.55;;;;;;;24.32;28.04;98823.66;4984696;28;20519;-70
2022/09/21 05:43:13;;;;;;;5.35;1.30;;;;;;;23.87;28.84;98831.34;4999619;28;20033;-70
2022/09/21 05:45:44;;;;;;;7.10;1.83;;;;;;;24.52;28.37;98820.97;4997379;28;20038;-71
2022/09/21 05:48:15;;;;;;;4.70;1.40;;;;;;;25.25;27.29;98832.59;4999509;28;20025;-71
2022/09/21 05:50:40;;;;;;;5.47;1.33;;;;;;;25.63;26.21;98824.72;4983486;28;20504;-70
2022/09/21 05:53:41;;;;;;;4.30;1.45;;;;;;;26.42;25.95;98826.31;5015061;28;20026;-72
2022/09/21 05:56:45;;;;;;;5.60;3.13;;;;;;;26.96;25.08;98814.09;4934186;29;20043;-72
2022/09/21 05:59:31;;;;;;;6.47;3.50;;;;;;;27.66;24.27;98820.97;4934956;29;20028;-74
2022/09/21 06:02:04;;;;;;;14.38;4.30;;;;;;;28.25;22.73;98817.69;4919117;29;20117;-72
2022/09/21 06:04:30;;;;;;;9.10;4.30;;;;;;;28.72;22.26;98816.94;4918961;29;20466;-72
2022/09/21 06:06:56;;;;;;;9.55;4.85;;;;;;;29.21;20.86;98821.03;4902680;29;20123;-72
2022/09/21 06:09:21;;;;;;;7.78;5.40;;;;;;;29.63;20.77;98827.22;4934484;29;20039;-72
2022/09/21 06:11:47;;;;;;;9.38;4.07;;;;;;;30.00;20.55;98819.63;4918723;29;20039;-70
2022/09/21 06:14:12;;;;;;;6.80;3.97;;;;;;;30.41;20.19;98825.72;4918558;29;20512;-72
2022/09/21 06:16:41;;;;;;;5.80;3.20;;;;;;;30.73;19.51;98830.50;4934328;29;20107;-73
2022/09/21 06:19:09;;;;;;;4.75;3.78;;;;;;;31.02;18.50;98820.44;4934145;29;20538;-73
2022/09/21 06:21:35;;;;;;;3.47;2.60;;;;;;;31.19;18.11;98812.31;4902928;29;20047;-73
2022/09/21 06:24:00;;;;;;;3.70;2.80;;;;;;;31.47;17.88;98820.44;4902479;29;20039;-71
2022/09/21 06:26:26;;;;;;;2.13;1.40;;;;;;;31.61;17.38;98816.31;4934071;29;20063;-72
2022/09/21 06:28:52;;;;;;;2.10;1.45;;;;;;;31.86;17.13;98823.06;4933385;29;20039;-71
2022/09/21 06:31:17;;;;;;;1.67;1.23;;;;;;;32.16;16.47;98822.56;5031902;28;20057;-71
2022/09/21 06:33:42;;;;;;;4.22;1.20;;;;;;;32.27;15.98;98815.38;5015934;28;20061;-71
2022/09/21 06:36:08;;;;;;;2.13;0.70;;;;;;;32.54;15.71;98823.41;4998691;28;20045;-72
2022/09/21 06:38:34;;;;;;;1.77;0.70;;;;;;;32.81;15.59;98827.94;4999223;28;20029;-72
2022/09/21 06:41:01;;;;;;;2.40;0.80;;;;;;;33.10;14.62;98828.38;4983140;28;20029;-72
2022/09/21 06:43:27;;;;;;;3.33;0.80;;;;;;;33.26;14.66;98831.22;4999457;28;20021;-71
2022/09/21 06:45:59;;;;;;;6.90;0.73;;;;;;;33.41;14.97;98825.84;5033389;28;20095;-71
2022/09/21 06:48:25;;;;;;;4.22;0.70;;;;;;;33.56;14.76;98827.78;4983340;28;20100;-71
2022/09/21 06:50:58;;;;;;;2.47;0.63;;;;;;;33.86;14.33;98820.88;4998972;28;20138;-71
2022/09/21 06:53:24;;;;;;;1.88;0.70;;;;;;;34.11;14.04;98825.50;4999631;28;20025;-70
2022/09/21 06:55:51;;;;;;;1.13;0.55;;;;;;;34.23;13.69;98823.34;5015075;28;20036;-71
2022/09/21 06:58:16;;;;;;;1.80;0.60;;;;;;;34.40;14.43;98816.84;4999214;28;20025;-72
2022/09/21 07:00:42;;;;;;;0.82;0.50;;;;;;;34.65;13.97;98821.44;5014972;28;20064;-73
2022/09/21 07:03:10;;;;;;;2.22;0.52;;;;;;;34.88;13.37;98801.06;5014850;28;20041;-71
2022/09/21 07:05:35;;;;;;;2.30;0.60;;;;;;;35.14;13.28;98812.66;4982693;28;20041;-71
2022/09/21 07:08:01;;;;;;;1.65;0.50;;;;;;;35.46;13.05;98802.50;5015120;28;20033;-71
2022/09/21 07:10:27;;;;;;;1.45;0.50;;;;;;;36.04;12.62;98813.56;5014886;28;20041;-72
2022/09/21 07:12:52;;;;;;;1.88;1.10;;;;;;;36.80;12.15;98812.41;5015125;28;20108;-71
2022/09/21 07:15:18;;;;;;;1.55;0.80;;;;;;;37.73;11.33;98812.91;5014861;28;20041;-70
2022/09/21 07:17:43;;;;;;;1.88;0.90;;;;;;;38.94;10.48;98812.28;4998589;28;20405;-70
2022/09/21 07:20:09;;;;;;;1.95;0.80;;;;;;;40.09;9.55;98815.03;4998616;28;20095;-73
2022/09/21 07:22:35;;;;;;;1.73;0.70;;;;;;;41.24;8.92;98815.28;4998454;28;20038;-70
2022/09/21 07:25:00;;;;;;;1.20;0.60;;;;;;;42.37;8.29;98816.44;5032473;28;20486;-71
2022/09/21 07:27:27;;;;;;;1.77;0.77;;;;;;;43.52;7.30;98812.88;5032568;28;20025;-71
2022/09/21 07:29:53;;;;;;;2.67;0.50;;;;;;;45.11;6.39;98810.97;4982165;28;20100;-71
2022/09/21 07:32:18;;;;;;;2.43;0.40;;;;;;;47.28;5.36;98812.84;5014948;28;20026;-70
2022/09/21 07:34:45;;;;;;;2.47;0.67;;;;;;;48.31;5.06;98810.59;4998118;28;20409;-71
2022/09/21 07:37:10;;;;;;;1.20;0.47;;;;;;;49.04;4.21;98807.03;5014924;28;20064;-72
2022/09/21 07:39:37;;;;;;;2.43;0.40;;;;;;;49.40;4.17;98807.56;5014569;28;20065;-71
2022/09/21 07:42:04;;;;;;;0.60;0.20;;;;;;;49.20;4.77;98812.44;5014894;28;20455;-72
2022/09/21 07:44:29;;;;;;;;;;;;;;;47.78;5.17;98802.09;4998727;28;20087;-71
2022/09/21 07:46:55;;;;;;;0.43;0.23;;;;;;;46.91;5.55;98805.69;5032496;28;19912;-71
2022/09/21 07:49:20;;;;;;;1.50;0.30;;;;;;;47.56;5.34;98809.91;5014773;28;20743;-70
2022/09/21 07:51:45;;;;;;;2.53;0.23;;;;;;;48.53;4.54;98794.38;5032393;28;20107;-70
2022/09/21 07:54:11;;;;;;;0.33;0.10;;;;;;;49.46;3.75;98800.50;4998238;28;20448;-72
2022/09/21 07:56:37;;;;;;;1.20;0.20;;;;;;;50.14;3.42;98804.06;5014400;28;20028;-71
2022/09/21 07:59:06;;;;;;;0.87;0.30;;;;;;;50.21;3.72;98808.91;5014153;28;20054;-71
2022/09/21 08:01:39;;;;;;;1.40;0.30;;;;;;;49.68;4.09;98798.03;5014931;28;20053;-71
2022/09/21 08:04:06;;;;;;;0.43;0.17;;;;;;;47.40;4.74;98807.22;4982107;28;20038;-72
2022/09/21 08:06:32;;;;;;;;;;;;;;;44.25;6.56;98806.13;4998483;28;20056;-72
2022/09/21 08:09:01;;;;;;;0.45;0.20;;;;;;;42.63;7.58;98791.72;5016402;28;20360;-72
2022/09/21 08:11:27;;;;;;;1.50;0.20;;;;;;;41.10;8.33;98784.50;5018265;28;20033;-72
2022/09/21 08:13:56;;;;;;;0.95;0.20;;;;;;;38.93;9.50;98797.00;5002198;28;20032;-73
2022/09/21 08:16:22;;;;;;;4.55;0.40;;;;;;;38.56;9.79;98785.16;5019079;28;20029;-73
2022/09/21 08:18:49;;;;;;;0.77;0.30;;;;;;;38.67;9.63;98783.88;4985946;28;20499;-73
2022/09/21 08:21:14;;;;;;;2.05;0.50;;;;;;;38.53;9.51;98786.56;5018363;28;20395;-73
2022/09/21 08:23:41;;;;;;;6.20;0.30;;;;;;;38.50;9.64;98781.69;5018299;28;20059;-72
2022/09/21 08:26:07;;;;;;;0.93;0.35;;;;;;;38.51;9.32;98790.72;5001762;28;20500;-72
2022/09/21 08:28:33;;;;;;;0.55;0.20;;;;;;;38.54;9.64;98779.22;5018170;28;20033;-72
2022/09/21 08:31:07;;;;;;;0.60;0.38;;;;;;;38.59;9.34;98783.72;4985137;28;20057;-72
2022/09/21 08:33:33;;;;;;;1.00;0.30;;;;;;;38.66;9.60;98787.72;5018156;28;20485;-71
2022/09/21 08:35:59;;;;;;;0.73;0.40;;;;;;;38.66;9.25;98773.28;5018078;28;20033;-71
2022/09/21 08:38:25;;;;;;;1.00;0.30;;;;;;;38.68;9.08;98774.59;5001540;28;20036;-73
2022/09/21 08:40:50;;;;;;;0.30;0.20;;;;;;;38.80;9.55;98785.00;5001465;28;20033;-72
2022/09/21 08:43:34;;;;;;;0.88;0.20;;;;;;;38.77;9.38;98777.41;5001284;28;20021;-73
2022/09/21 08:46:01;;;;;;;0.75;0.28;;;;;;;38.84;8.98;98771.53;5002197;28;20169;-73
2022/09/21 08:48:28;;;;;;;0.80;0.30;;;;;;;38.97;8.92;98764.50;5001464;28;20091;-72
2022/09/21 08:50:56;;;;;;;3.13;0.22;;;;;;;39.02;8.62;98762.44;5001450;28;20532;-71
2022/09/21 08:53:29;;;;;;;0.95;0.30;;;;;;;39.12;8.75;98760.66;5001121;28;20032;-72
2022/09/21 08:55:56;;;;;;;0.63;0.20;;;;;;;39.19;8.42;98750.94;4985241;28;20045;-72
2022/09/21 08:58:23;;;;;;;1.25;0.30;;;;;;;39.16;8.82;98758.94;5017572;28;20030;-71
2022/09/21 09:01:05;;;;;;;1.95;0.30;;;;;;;39.18;8.96;98751.25;5017649;28;20044;-71
2022/09/21 09:03:54;;;;;;;1.40;0.30;;;;;;;38.31;10.02;98759.16;5019076;28;20493;-71
2022/09/21 09:06:56;;;;;;;0.85;0.20;;;;;;;37.86;10.10;98758.78;4936329;29;20071;-73
2022/09/21 09:09:36;;;;;;;0.88;0.20;;;;;;;37.00;10.24;98749.59;4920202;29;20074;-72
2022/09/21 09:12:38;;;;;;;0.82;0.25;;;;;;;36.00;10.97;98750.03;4903546;29;20047;-73
2022/09/21 09:15:22;;;;;;;1.73;0.30;;;;;;;35.08;11.07;98745.94;4935030;29;20044;-71
2022/09/21 09:18:06;;;;;;;1.13;0.28;;;;;;;34.33;12.10;98737.75;4919504;29;20107;-72
2022/09/21 09:20:54;;;;;;;0.55;0.28;;;;;;;33.72;12.12;98742.88;4920559;29;20095;-72
2022/09/21 09:23:38;;;;;;;0.57;0.32;;;;;;;33.00;13.17;98734.53;4906093;29;20046;-71
2022/09/21 09:26:07;;;;;;;0.65;0.40;;;;;;;32.50;13.90;98737.72;4919803;29;20122;-75
2022/09/21 09:28:54;;;;;;;0.52;0.20;;;;;;;31.97;14.39;98729.50;4919255;29;20039;-71
2022/09/21 09:31:34;;;;;;;0.73;0.40;;;;;;;31.39;14.97;98730.00;4919435;29;20056;-71
2022/09/21 09:34:10;;;;;;;2.70;0.50;;;;;;;30.93;15.62;98724.91;4919136;29;20031;-73
2022/09/21 09:36:36;;;;;;;4.00;0.50;;;;;;;30.59;16.18;98732.25;4905054;29;20051;-71
2022/09/21 09:39:04;;;;;;;3.83;0.63;;;;;;;30.25;16.54;98726.88;4919419;29;20073;-71
2022/09/21 09:41:32;;;;;;;4.03;0.70;;;;;;;29.85;16.55;98731.34;4919125;29;20087;-72
2022/09/21 09:43:58;;;;;;;1.38;0.57;;;;;;;29.55;16.28;98729.72;5011014;28;20095;-73
2022/09/21 09:46:30;;;;;;;1.60;0.50;;;;;;;29.30;16.73;98723.88;5034471;28;20029;-72
2022/09/21 09:49:01;;;;;;;1.50;0.50;;;;;;;29.15;16.54;98732.44;5016775;28;20091;-71
2022/09/21 09:51:27;;;;;;;2.10;0.45;;;;;;;28.97;17.63;98730.72;5034091;28;20104;-72
2022/09/21 09:53:52;;;;;;;4.55;0.60;;;;;;;28.77;18.09;98731.94;5000541;28;20091;-72
2022/09/21 09:56:18;;;;;;;1.13;0.40;;;;;;;28.52;18.39;98724.91;5000131;28;20025;-73
2022/09/21 09:58:51;;;;;;;2.75;0.40;;;;;;;28.23;18.20;98723.16;5000289;28;20061;-72
2022/09/21 10:02:01;;;;;;;8.57;0.68;;;;;;;28.15;18.61;98724.34;5000447;28;20038;-72
2022/09/21 10:04:27;;;;;;;4.63;0.50;;;;;;;27.95;18.59;98733.50;4933686;29;20044;-73
2022/09/21 10:06:52;;;;;;;1.65;0.50;;;;;;;27.72;18.72;98725.38;4918610;29;20102;-72
2022/09/21 10:09:31;;;;;;;2.10;0.57;;;;;;;27.50;18.92;98723.22;4902844;29;20095;-75
2022/09/21 10:11:59;;;;;;;1.65;0.70;;;;;;;27.40;19.45;98725.59;4902926;29;20035;-74
2022/09/21 10:14:27;;;;;;;2.55;0.80;;;;;;;27.29;20.32;98723.66;4917318;29;20171;-73
2022/09/21 10:16:52;;;;;;;3.13;0.82;;;;;;;27.14;21.41;98729.44;4918146;29;20044;-72
2022/09/21 10:19:22;;;;;;;2.58;0.60;;;;;;;27.01;21.57;98730.38;4918688;29;20051;-73
2022/09/21 10:21:49;;;;;;;2.33;0.75;;;;;;;26.89;22.28;98731.13;4902767;29;20039;-74
2022/09/21 10:24:17;;;;;;;4.70;0.60;;;;;;;26.75;23.74;98726.16;4902743;29;20311;-73
2022/09/21 10:26:45;;;;;;;3.33;0.60;;;;;;;26.56;25.40;98726.09;4918308;29;20083;-75
2022/09/21 10:29:22;;;;;;;2.03;0.53;;;;;;;26.39;27.02;98728.53;4915534;29;20057;-75
2022/09/21 10:32:12;;;;;;;1.23;0.60;;;;;;;26.18;27.02;98730.56;4913628;29;20036;-72
2022/09/21 10:34:58;;;;;;;4.32;0.75;;;;;;;26.03;27.33;98735.44;4944402;28;20095;-73
2022/09/21 10:37:27;;;;;;;0.73;0.30;;;;;;;25.86;26.46;98726.28;5004278;28;20037;-72
2022/09/21 10:39:53;;;;;;;1.45;0.40;;;;;;;25.69;26.50;98726.78;5003614;28;20056;-73
2022/09/21 10:42:18;;;;;;;1.23;0.40;;;;;;;25.63;26.16;98725.81;4987168;28;20026;-74
2022/09/21 10:44:45;;;;;;;1.40;0.50;;;;;;;25.52;26.29;98736.34;4971955;28;20030;-72
2022/09/21 10:47:39;;;;;;;1.98;0.47;;;;;;;25.39;26.77;98731.91;5003397;28;20034;-73
2022/09/21 10:50:19;;;;;;;1.27;0.50;;;;;;;25.29;26.99;98729.69;5004506;28;20468;-73
2022/09/21 10:52:46;;;;;;;1.73;0.50;;;;;;;25.21;26.29;98729.91;4973846;28;20045;-74
2022/09/21 10:55:19;;;;;;;1.33;0.52;;;;;;;25.16;26.19;98724.34;5002623;28;20402;-72
2022/09/21 10:57:45;;;;;;;1.80;0.82;;;;;;;25.12;26.55;98731.97;4969840;28;20453;-72
2022/09/21 11:00:34;;;;;;;2.03;0.93;;;;;;;25.01;27.17;98722.78;4972517;28;20033;-70
2022/09/21 11:03:02;;;;;;;3.00;0.80;;;;;;;24.95;28.19;98736.16;5001014;28;20064;-71
2022/09/21 11:05:33;;;;;;;2.33;0.45;;;;;;;24.89;29.43;98740.47;5014685;28;20038;-71
2022/09/21 11:08:15;;;;;;;0.88;0.50;;;;;;;24.83;30.80;98749.34;4998251;28;20036;-73
2022/09/21 11:10:45;;;;;;;1.52;0.60;;;;;;;24.75;31.46;98745.03;4997837;28;20029;-71
2022/09/21 11:13:43;;;;;;;3.78;0.60;;;;;;;24.71;31.32;98739.28;5014187;28;20026;-69
2022/09/21 11:16:14;;;;;;;;;;;;;;;24.72;30.48;98738.25;5027799;28;20049;-72
2022/09/21 11:19:03;;;;;;;1.85;0.70;;;;;;;24.66;30.81;98735.63;4997745;28;19971;-72
2022/09/21 11:21:42;;;;;;;2.05;0.60;;;;;;;24.69;30.26;98738.69;5000125;28;20040;-75
2022/09/21 11:24:36;;;;;;;2.47;0.50;;;;;;;24.68;28.81;98738.88;5014557;28;20405;-75
2022/09/21 11:27:36;;;;;;;3.17;0.70;;;;;;;24.76;27.34;98735.19;5031827;28;20024;-73
2022/09/21 11:30:15;;;;;;;7.15;1.17;;;;;;;24.78;27.42;98736.63;5013859;28;20457;-77
2022/09/21 11:32:53;;;;;;;2.58;1.10;;;;;;;24.81;26.94;98735.38;4981944;28;20065;-77
2022/09/21 11:35:23;;;;;;;9.43;1.08;;;;;;;24.79;26.30;98732.91;5030729;28;20061;-73
2022/09/21 11:38:04;;;;;;;1.60;0.80;;;;;;;24.76;25.75;98730.66;5013534;28;20485;-72
2022/09/21 11:41:01;;;;;;;1.77;0.77;;;;;;;24.71;25.32;98728.59;4997260;28;20061;-73
2022/09/21 11:43:41;;;;;;;2.45;0.80;;;;;;;24.71;25.07;98738.47;5024139;28;20029;-73
2022/09/21 11:46:06;;;;;;;1.48;0.68;;;;;;;24.68;25.09;98742.38;5021527;28;20105;-74
2022/09/21 11:48:50;;;;;;;0.90;0.60;;;;;;;24.66;26.31;98743.63;5002879;28;20477;-73
2022/09/21 11:51:43;;;;;;;4.45;0.77;;;;;;;24.74;31.21;98757.56;5023435;28;20033;-74
2022/09/21 11:54:34;;;;;;;5.68;1.10;;;;;;;24.87;31.93;98772.72;5007579;28;20025;-74
2022/09/21 11:57:20;;;;;;;5.60;1.20;;;;;;;24.92;32.17;98780.94;5003723;28;20139;-75